createdAt,value
2023-03-05T00:00:14.533Z,8.77
2023-03-05T00:00:46.882Z,9.60
2023-03-05T00:01:22.921Z,9.00
2023-03-05T00:01:55.316Z,8.05
2023-03-05T00:02:27.692Z,8.63
2023-03-05T00:02:59.969Z,8.50
2023-03-05T00:03:32.411Z,8.80
2023-03-05T00:04:05.909Z,8.73
2023-03-05T00:04:38.238Z,9.23
2023-03-05T00:05:10.881Z,8.50
2023-03-05T00:05:43.566Z,8.95
2023-03-05T00:06:17.612Z,9.35
2023-03-05T00:06:49.912Z,9.50
2023-03-05T00:07:22.193Z,9.20
2023-03-05T00:07:54.538Z,8.55
2023-03-05T00:08:27.561Z,8.75
2023-03-05T00:09:00.322Z,9.07
2023-03-05T00:09:34.320Z,8.18
2023-03-05T00:10:08.233Z,8.53
2023-03-05T00:10:40.830Z,8.80
2023-03-05T00:11:13.373Z,9.00
2023-03-05T00:11:45.706Z,9.15
2023-03-05T00:12:18.282Z,9.32
2023-03-05T00:12:50.666Z,8.63
2023-03-05T00:13:22.959Z,8.13
2023-03-05T00:13:55.911Z,8.30
2023-03-05T00:14:28.185Z,7.93
2023-03-05T00:15:00.498Z,7.78
2023-03-05T00:15:33.164Z,8.70
2023-03-05T00:16:10.184Z,8.23
2023-03-05T00:16:42.715Z,8.48
2023-03-05T00:17:14.988Z,8.10
2023-03-05T00:17:47.429Z,7.72
2023-03-05T00:18:20.534Z,7.75
2023-03-05T00:18:53.746Z,7.78
2023-03-05T00:19:26.427Z,7.90
2023-03-05T00:20:01.311Z,8.20
2023-03-05T00:20:35.311Z,8.50
2023-03-05T00:21:22.553Z,8.37
2023-03-05T00:21:54.859Z,7.60
2023-03-05T00:22:27.562Z,7.50
2023-03-05T00:23:00.142Z,8.57
2023-03-05T00:23:32.485Z,7.60
2023-03-05T00:24:06.654Z,8.20
2023-03-05T00:24:38.949Z,7.97
2023-03-05T00:25:11.291Z,8.30
2023-03-05T00:25:43.833Z,7.72
2023-03-05T00:26:16.662Z,8.30
2023-03-05T00:26:49.982Z,7.97
2023-03-05T00:27:22.359Z,7.65
2023-03-05T00:27:54.707Z,8.30
2023-03-05T00:28:26.996Z,8.10
2023-03-05T00:28:59.402Z,8.85
2023-03-05T00:29:31.870Z,7.60
2023-03-05T00:30:04.409Z,8.73
2023-03-05T00:30:36.807Z,8.40
2023-03-05T00:31:09.544Z,9.90
2023-03-05T00:31:41.883Z,8.23
2023-03-05T00:32:14.476Z,7.67
2023-03-05T00:32:46.972Z,8.43
2023-03-05T00:33:19.517Z,7.93
2023-03-05T00:33:52.763Z,8.20
2023-03-05T00:34:26.073Z,9.25
2023-03-05T00:34:58.459Z,8.30
2023-03-05T00:35:30.781Z,8.88
2023-03-05T00:36:05.749Z,8.82
2023-03-05T00:36:41.662Z,8.50
2023-03-05T00:37:14.015Z,9.23
2023-03-05T00:37:46.436Z,8.60
2023-03-05T00:38:18.728Z,9.10
2023-03-05T00:38:51.474Z,7.63
2023-03-05T00:39:23.952Z,9.27
2023-03-05T00:39:56.306Z,8.10
2023-03-05T00:40:28.594Z,8.65
2023-03-05T00:41:00.889Z,8.48
2023-03-05T00:41:33.344Z,8.63
2023-03-05T00:42:05.803Z,8.02
2023-03-05T00:42:38.943Z,8.60
2023-03-05T00:43:11.422Z,8.90
2023-03-05T00:43:43.866Z,8.50
2023-03-05T00:44:16.785Z,8.23
2023-03-05T00:44:49.294Z,9.18
2023-03-05T00:45:21.570Z,8.77
2023-03-05T00:45:54.073Z,8.48
2023-03-05T00:46:27.773Z,8.18
2023-03-05T00:47:00.425Z,8.73
2023-03-05T00:47:32.936Z,8.75
2023-03-05T00:48:05.631Z,8.15
2023-03-05T00:48:37.952Z,8.67
2023-03-05T00:49:10.282Z,7.75
2023-03-05T00:49:42.764Z,8.35
2023-03-05T00:50:15.521Z,8.27
2023-03-05T00:50:47.994Z,8.27
2023-03-05T00:51:21.172Z,7.85
2023-03-05T00:51:53.743Z,7.78
2023-03-05T00:52:26.093Z,8.13
2023-03-05T00:52:58.570Z,8.10
2023-03-05T00:53:31.241Z,8.32
2023-03-05T00:54:04.677Z,8.37
2023-03-05T00:54:37.339Z,8.60
2023-03-05T00:55:09.876Z,8.60
2023-03-05T00:55:42.185Z,8.20
2023-03-05T00:56:14.576Z,8.93
2023-03-05T00:56:47.647Z,8.00
2023-03-05T00:57:19.918Z,9.15
2023-03-05T00:57:52.213Z,8.52
2023-03-05T00:58:24.588Z,8.40
2023-03-05T00:58:57.085Z,8.68
2023-03-05T00:59:29.696Z,8.93
2023-03-05T01:00:01.973Z,8.38
2023-03-05T01:00:34.891Z,8.35
2023-03-05T01:01:07.667Z,8.55
2023-03-05T01:01:40.381Z,8.10
2023-03-05T01:02:12.763Z,7.45
2023-03-05T01:02:45.034Z,8.90
2023-03-05T01:03:20.395Z,8.95
2023-03-05T01:03:56.563Z,8.75
2023-03-05T01:04:29.440Z,8.65
2023-03-05T01:05:01.918Z,8.40
2023-03-05T01:05:34.504Z,7.93
2023-03-05T01:06:08.043Z,8.65
2023-03-05T01:06:44.990Z,8.77
2023-03-05T01:07:19.370Z,8.85
2023-03-05T01:07:54.876Z,8.38
2023-03-05T01:08:27.544Z,8.75
2023-03-05T01:08:59.808Z,8.77
2023-03-05T01:09:32.099Z,8.48
2023-03-05T01:10:05.038Z,8.52
2023-03-05T01:10:37.411Z,8.60
2023-03-05T01:11:10.680Z,8.77
2023-03-05T01:11:42.964Z,8.18
2023-03-05T01:12:15.416Z,8.98
2023-03-05T01:12:47.818Z,8.10
2023-03-05T01:13:20.090Z,8.23
2023-03-05T01:13:52.372Z,9.30
2023-03-05T01:14:24.694Z,9.05
2023-03-05T01:14:57.066Z,8.13
2023-03-05T01:15:29.459Z,8.45
2023-03-05T01:16:01.923Z,8.50
2023-03-05T01:16:34.700Z,8.68
2023-03-05T01:17:07.986Z,7.95
2023-03-05T01:17:40.259Z,8.77
2023-03-05T01:18:12.741Z,9.05
2023-03-05T01:18:45.269Z,8.32
2023-03-05T01:19:18.773Z,8.60
2023-03-05T01:19:51.066Z,8.15
2023-03-05T01:20:23.648Z,9.00
2023-03-05T01:20:56.071Z,8.90
2023-03-05T01:21:28.511Z,8.00
2023-03-05T01:22:00.801Z,8.80
2023-03-05T01:22:33.301Z,8.48
2023-03-05T01:23:05.603Z,7.85
2023-03-05T01:23:38.010Z,8.40
2023-03-05T01:24:10.469Z,8.75
2023-03-05T01:24:42.753Z,8.45
2023-03-05T01:25:15.940Z,8.27
2023-03-05T01:25:55.612Z,8.45
2023-03-05T01:26:28.463Z,8.27
2023-03-05T01:27:00.863Z,8.43
2023-03-05T01:27:33.763Z,8.38
2023-03-05T01:28:06.057Z,8.63
2023-03-05T01:28:38.715Z,8.50
2023-03-05T01:29:11.209Z,9.07
2023-03-05T01:29:43.561Z,8.52
2023-03-05T01:30:16.026Z,9.18
2023-03-05T01:30:48.349Z,8.48
2023-03-05T01:31:20.957Z,9.20
2023-03-05T01:31:53.290Z,8.65
2023-03-05T01:32:25.664Z,9.27
2023-03-05T01:32:58.137Z,8.45
2023-03-05T01:33:30.822Z,9.05
2023-03-05T01:34:03.123Z,9.05
2023-03-05T01:34:36.830Z,7.97
2023-03-05T01:35:10.781Z,8.98
2023-03-05T01:35:43.494Z,9.07
2023-03-05T01:36:17.115Z,9.00
2023-03-05T01:36:52.465Z,8.73
2023-03-05T01:37:24.775Z,8.57
2023-03-05T01:37:57.062Z,9.47
2023-03-05T01:38:29.396Z,8.55
2023-03-05T01:39:02.827Z,8.50
2023-03-05T01:39:36.656Z,8.50
2023-03-05T01:40:10.185Z,9.13
2023-03-05T01:40:43.082Z,9.20
2023-03-05T01:41:16.537Z,9.55
2023-03-05T01:41:48.965Z,8.50
2023-03-05T01:42:21.389Z,9.15
2023-03-05T01:43:12.067Z,8.50
2023-03-05T01:43:45.101Z,8.47
2023-03-05T01:44:25.341Z,8.35
2023-03-05T01:45:00.900Z,8.80
2023-03-05T01:45:33.427Z,8.95
2023-03-05T01:46:38.288Z,8.50
2023-03-05T01:47:10.737Z,8.52
2023-03-05T01:47:43.346Z,8.82
2023-03-05T01:48:15.613Z,9.32
2023-03-05T01:48:50.025Z,9.02
2023-03-05T01:49:32.950Z,8.23
2023-03-05T01:50:07.526Z,8.23
2023-03-05T01:50:40.574Z,8.43
2023-03-05T01:51:13.145Z,8.77
2023-03-05T01:51:51.709Z,8.98
2023-03-05T01:52:25.122Z,9.30
2023-03-05T01:53:06.310Z,8.35
2023-03-05T01:53:38.655Z,8.13
2023-03-05T01:54:12.049Z,8.48
2023-03-05T01:54:46.559Z,8.57
2023-03-05T01:55:21.236Z,8.48
2023-03-05T01:55:55.924Z,8.63
2023-03-05T01:56:29.584Z,9.07
2023-03-05T01:57:04.898Z,15.68
2023-03-05T01:57:46.952Z,16.75
2023-03-05T01:58:19.389Z,14.27
2023-03-05T01:58:52.267Z,16.25
2023-03-05T01:59:25.763Z,16.95
2023-03-05T02:00:11.701Z,15.60
2023-03-05T02:00:48.569Z,18.48
2023-03-05T02:01:21.799Z,15.25
2023-03-05T02:01:55.885Z,12.30
2023-03-05T02:02:28.486Z,16.40
2023-03-05T02:03:03.888Z,15.27
2023-03-05T02:03:36.932Z,13.68
2023-03-05T02:04:11.279Z,14.75
2023-03-05T02:04:46.649Z,13.90
2023-03-05T02:05:38.643Z,13.40
2023-03-05T02:06:11.553Z,12.70
2023-03-05T02:06:44.628Z,11.90
2023-03-05T02:07:18.060Z,12.13
2023-03-05T02:07:50.804Z,11.37
2023-03-05T02:08:23.664Z,10.52
2023-03-05T02:08:56.834Z,11.85
2023-03-05T02:09:29.725Z,13.48
2023-03-05T02:10:02.031Z,12.25
2023-03-05T02:10:36.496Z,10.95
2023-03-05T02:11:08.949Z,11.23
2023-03-05T02:11:41.721Z,10.50
2023-03-05T02:12:14.942Z,10.77
2023-03-05T02:12:49.445Z,10.40
2023-03-05T02:13:23.806Z,10.07
2023-03-05T02:13:56.572Z,9.60
2023-03-05T02:14:29.078Z,9.80
2023-03-05T02:15:01.394Z,9.23
2023-03-05T02:15:34.234Z,9.27
2023-03-05T02:16:06.985Z,9.23
2023-03-05T02:16:39.615Z,9.07
2023-03-05T02:17:12.617Z,10.20
2023-03-05T02:17:45.404Z,10.18
2023-03-05T02:18:18.795Z,9.18
2023-03-05T02:18:51.229Z,10.03
2023-03-05T02:19:23.511Z,10.23
2023-03-05T02:20:02.464Z,10.30
2023-03-05T02:20:50.278Z,9.50
2023-03-05T02:21:35.766Z,9.82
2023-03-05T02:22:14.364Z,9.43
2023-03-05T02:22:46.836Z,8.82
2023-03-05T02:23:19.842Z,9.25
2023-03-05T02:23:52.228Z,9.20
2023-03-05T02:24:37.259Z,9.35
2023-03-05T02:25:20.328Z,8.20
2023-03-05T02:25:53.364Z,8.85
2023-03-05T02:26:25.708Z,8.98
2023-03-05T02:26:58.128Z,9.00
2023-03-05T02:27:35.278Z,9.43
2023-03-05T02:28:19.973Z,9.35
2023-03-05T02:28:58.180Z,8.45
2023-03-05T02:29:31.913Z,9.48
2023-03-05T02:30:04.330Z,9.13
2023-03-05T02:30:37.583Z,8.98
2023-03-05T02:31:13.213Z,9.10
2023-03-05T02:31:45.631Z,9.27
2023-03-05T02:32:18.128Z,8.95
2023-03-05T02:32:51.477Z,8.70
2023-03-05T02:33:25.290Z,9.77
2023-03-05T02:33:58.176Z,8.95
2023-03-05T02:34:31.357Z,9.10
2023-03-05T02:35:04.284Z,9.02
2023-03-05T02:35:37.103Z,9.50
2023-03-05T02:36:09.565Z,8.32
2023-03-05T02:36:41.973Z,8.90
2023-03-05T02:37:14.764Z,8.70
2023-03-05T02:37:47.145Z,9.43
2023-03-05T02:38:20.296Z,8.85
2023-03-05T02:38:53.776Z,9.18
2023-03-05T02:39:26.392Z,9.05
2023-03-05T02:39:58.887Z,9.15
2023-03-05T02:40:31.641Z,8.45
2023-03-05T02:41:04.141Z,9.05
2023-03-05T02:41:36.438Z,8.65
2023-03-05T02:42:09.649Z,9.43
2023-03-05T02:42:43.059Z,9.30
2023-03-05T02:43:17.270Z,9.07
2023-03-05T02:43:49.720Z,8.57
2023-03-05T02:44:22.045Z,9.10
2023-03-05T02:44:54.620Z,8.80
2023-03-05T02:45:27.033Z,9.38
2023-03-05T02:45:59.424Z,9.40
2023-03-05T02:46:31.832Z,8.70
2023-03-05T02:47:04.218Z,8.20
2023-03-05T02:47:38.419Z,8.77
2023-03-05T02:48:12.134Z,8.77
2023-03-05T02:48:45.159Z,7.85
2023-03-05T02:49:19.139Z,8.52
2023-03-05T02:49:51.531Z,8.68
2023-03-05T02:50:24.189Z,8.55
2023-03-05T02:50:56.748Z,9.13
2023-03-05T02:51:29.056Z,8.32
2023-03-05T02:52:01.953Z,9.10
2023-03-05T02:52:34.328Z,8.63
2023-03-05T02:53:06.948Z,8.27
2023-03-05T02:53:39.299Z,7.10
2023-03-05T02:54:11.643Z,8.55
2023-03-05T02:54:43.853Z,8.88
2023-03-05T02:55:16.282Z,8.98
2023-03-05T02:55:50.267Z,8.50
2023-03-05T02:56:22.531Z,9.20
2023-03-05T02:56:54.843Z,10.15
2023-03-05T02:57:28.241Z,10.65
2023-03-05T02:58:01.022Z,11.20
2023-03-05T02:58:33.470Z,8.77
2023-03-05T02:59:06.261Z,8.43
2023-03-05T02:59:38.569Z,8.82
2023-03-05T03:00:11.295Z,7.88
2023-03-05T03:00:43.916Z,9.00
2023-03-05T03:01:16.368Z,8.23
2023-03-05T03:01:48.747Z,8.27
2023-03-05T03:02:21.616Z,8.75
2023-03-05T03:02:54.336Z,9.05
2023-03-05T03:03:26.887Z,8.95
2023-03-05T03:03:59.482Z,8.33
2023-03-05T03:04:31.761Z,7.75
2023-03-05T03:05:04.234Z,7.95
2023-03-05T03:05:36.929Z,7.53
2023-03-05T03:06:09.258Z,9.10
2023-03-05T03:06:41.646Z,8.52
2023-03-05T03:07:14.545Z,7.57
2023-03-05T03:07:46.847Z,8.35
2023-03-05T03:08:19.148Z,9.07
2023-03-05T03:08:51.454Z,8.93
2023-03-05T03:09:23.754Z,8.50
2023-03-05T03:09:56.073Z,8.23
2023-03-05T03:10:28.336Z,7.10
2023-03-05T03:11:07.296Z,7.32
2023-03-05T03:11:39.839Z,6.55
2023-03-05T03:12:12.631Z,7.20
2023-03-05T03:12:45.486Z,7.65
2023-03-05T03:13:17.915Z,6.38
2023-03-05T03:13:50.199Z,6.60
2023-03-05T03:14:22.478Z,6.88
2023-03-05T03:14:54.879Z,7.37
2023-03-05T03:15:27.213Z,7.25
2023-03-05T03:16:07.071Z,7.00
2023-03-05T03:16:39.450Z,6.90
2023-03-05T03:17:13.336Z,7.50
2023-03-05T03:17:45.954Z,7.53
2023-03-05T03:18:18.319Z,7.18
2023-03-05T03:18:50.661Z,7.10
2023-03-05T03:19:22.954Z,6.70
2023-03-05T03:19:55.249Z,7.13
2023-03-05T03:20:27.615Z,7.20
2023-03-05T03:20:59.928Z,6.85
2023-03-05T03:21:32.537Z,7.32
2023-03-05T03:22:05.181Z,7.18
2023-03-05T03:22:37.464Z,7.68
2023-03-05T03:23:09.785Z,6.97
2023-03-05T03:23:42.066Z,6.30
2023-03-05T03:24:14.323Z,5.90
2023-03-05T03:24:46.649Z,6.50
2023-03-05T03:25:20.556Z,6.00
2023-03-05T03:25:53.535Z,6.60
2023-03-05T03:26:25.843Z,6.75
2023-03-05T03:26:58.125Z,5.85
2023-03-05T03:27:30.435Z,7.00
2023-03-05T03:28:03.518Z,6.60
2023-03-05T03:28:35.821Z,6.82
2023-03-05T03:29:08.121Z,6.90
2023-03-05T03:29:40.423Z,6.97
2023-03-05T03:30:13.601Z,6.60
2023-03-05T03:30:45.944Z,6.32
2023-03-05T03:31:18.756Z,5.90
2023-03-05T03:31:51.089Z,6.15
2023-03-05T03:32:23.466Z,5.93
2023-03-05T03:32:55.777Z,5.60
2023-03-05T03:33:28.119Z,5.57
2023-03-05T03:34:00.402Z,5.22
2023-03-05T03:34:32.668Z,5.60
2023-03-05T03:35:05.230Z,5.57
2023-03-05T03:35:37.879Z,5.82
2023-03-05T03:36:10.330Z,5.60
2023-03-05T03:36:46.846Z,5.70
2023-03-05T03:37:22.230Z,5.47
2023-03-05T03:37:54.551Z,5.72
2023-03-05T03:38:26.859Z,5.53
2023-03-05T03:38:59.186Z,6.03
2023-03-05T03:39:31.646Z,5.50
2023-03-05T03:40:05.931Z,5.00
2023-03-05T03:40:38.741Z,5.75
2023-03-05T03:41:11.019Z,5.50
2023-03-05T03:41:44.574Z,5.25
2023-03-05T03:42:18.113Z,5.53
2023-03-05T03:42:53.421Z,5.50
2023-03-05T03:43:25.842Z,5.63
2023-03-05T03:43:58.151Z,5.70
2023-03-05T03:44:30.447Z,5.72
2023-03-05T03:45:03.545Z,5.60
2023-03-05T03:45:35.902Z,5.50
2023-03-05T03:46:08.307Z,5.80
2023-03-05T03:46:41.144Z,5.35
2023-03-05T03:47:13.439Z,5.07
2023-03-05T03:47:45.726Z,5.40
2023-03-05T03:48:18.315Z,5.22
2023-03-05T03:48:51.734Z,5.72
2023-03-05T03:49:24.929Z,5.50
2023-03-05T03:49:59.044Z,5.40
2023-03-05T03:50:31.590Z,5.53
2023-03-05T03:51:04.611Z,5.88
2023-03-05T03:51:36.903Z,5.75
2023-03-05T03:52:09.261Z,5.70
2023-03-05T03:52:41.541Z,5.70
2023-03-05T03:53:14.535Z,5.87
2023-03-05T03:53:46.855Z,5.00
2023-03-05T03:54:19.470Z,5.13
2023-03-05T03:54:53.294Z,5.20
2023-03-05T03:55:25.614Z,5.40
2023-03-05T03:55:58.811Z,5.28
2023-03-05T03:56:31.139Z,5.60
2023-03-05T03:57:03.897Z,5.63
2023-03-05T03:57:36.639Z,5.03
2023-03-05T03:58:09.166Z,5.47
2023-03-05T03:58:41.476Z,5.63
2023-03-05T03:59:14.167Z,5.50
2023-03-05T03:59:46.539Z,5.45
2023-03-05T04:00:19.142Z,6.38
2023-03-05T04:00:51.433Z,6.32
2023-03-05T04:01:23.979Z,5.82
2023-03-05T04:01:56.287Z,6.97
2023-03-05T04:02:28.670Z,6.70
2023-03-05T04:03:00.972Z,5.95
2023-03-05T04:03:33.355Z,5.38
2023-03-05T04:04:06.118Z,5.27
2023-03-05T04:04:38.583Z,5.03
2023-03-05T04:05:11.274Z,5.75
2023-03-05T04:05:43.561Z,5.47
2023-03-05T04:06:15.922Z,5.72
2023-03-05T04:06:48.600Z,5.28
2023-03-05T04:07:20.977Z,5.35
2023-03-05T04:07:53.431Z,5.18
2023-03-05T04:08:25.718Z,5.07
2023-03-05T04:08:58.237Z,5.38
2023-03-05T04:09:30.561Z,5.67
2023-03-05T04:10:03.407Z,5.47
2023-03-05T04:10:35.761Z,4.90
2023-03-05T04:11:08.389Z,5.88
2023-03-05T04:11:40.665Z,5.60
2023-03-05T04:12:18.093Z,5.47
2023-03-05T04:12:50.475Z,6.03
2023-03-05T04:13:22.748Z,4.85
2023-03-05T04:13:55.028Z,5.97
2023-03-05T04:14:27.508Z,5.00
2023-03-05T04:14:59.798Z,5.20
2023-03-05T04:15:32.768Z,5.15
2023-03-05T04:16:05.311Z,5.82
2023-03-05T04:16:37.680Z,5.80
2023-03-05T04:17:10.292Z,5.50
2023-03-05T04:17:42.575Z,5.10
2023-03-05T04:18:14.933Z,5.45
2023-03-05T04:18:47.339Z,5.05
2023-03-05T04:19:20.045Z,5.03
2023-03-05T04:19:52.404Z,5.43
2023-03-05T04:20:24.785Z,5.30
2023-03-05T04:20:57.117Z,4.63
2023-03-05T04:21:29.804Z,5.40
2023-03-05T04:22:02.148Z,5.15
2023-03-05T04:22:34.462Z,5.45
2023-03-05T04:23:06.728Z,5.25
2023-03-05T04:23:39.189Z,5.30
2023-03-05T04:24:11.592Z,5.35
2023-03-05T04:24:44.228Z,6.00
2023-03-05T04:25:16.950Z,5.60
2023-03-05T04:25:49.256Z,5.90
2023-03-05T04:26:21.604Z,5.95
2023-03-05T04:26:53.868Z,6.68
2023-03-05T04:27:26.162Z,6.68
2023-03-05T04:27:58.432Z,6.70
2023-03-05T04:28:30.869Z,6.63
2023-03-05T04:29:03.320Z,6.80
2023-03-05T04:29:35.843Z,7.18
2023-03-05T04:30:09.071Z,7.32
2023-03-05T04:30:41.788Z,7.18
2023-03-05T04:31:14.294Z,7.50
2023-03-05T04:31:46.834Z,6.90
2023-03-05T04:32:23.340Z,6.40
2023-03-05T04:32:55.728Z,7.07
2023-03-05T04:33:28.105Z,6.95
2023-03-05T04:34:01.672Z,7.53
2023-03-05T04:34:34.172Z,7.45
2023-03-05T04:35:06.952Z,7.53
2023-03-05T04:35:39.321Z,7.45
2023-03-05T04:36:11.646Z,7.47
2023-03-05T04:36:44.134Z,7.43
2023-03-05T04:37:16.563Z,7.47
2023-03-05T04:37:48.921Z,8.10
2023-03-05T04:38:21.272Z,7.60
2023-03-05T04:38:53.554Z,8.48
2023-03-05T04:39:25.848Z,8.38
2023-03-05T04:39:58.193Z,10.02
2023-03-05T04:40:30.532Z,10.32
2023-03-05T04:41:02.842Z,8.45
2023-03-05T04:41:35.555Z,8.20
2023-03-05T04:42:07.888Z,9.10
2023-03-05T04:42:40.243Z,8.30
2023-03-05T04:43:12.609Z,7.90
2023-03-05T04:43:44.935Z,7.55
2023-03-05T04:44:18.120Z,9.23
2023-03-05T04:44:50.745Z,7.38
2023-03-05T04:45:23.126Z,8.10
2023-03-05T04:45:55.978Z,7.18
2023-03-05T04:46:28.325Z,8.43
2023-03-05T04:47:00.678Z,8.20
2023-03-05T04:47:32.997Z,9.37
2023-03-05T04:48:05.488Z,7.38
2023-03-05T04:48:37.806Z,7.70
2023-03-05T04:49:10.143Z,7.68
2023-03-05T04:49:42.479Z,8.35
2023-03-05T04:50:14.795Z,8.18
2023-03-05T04:50:47.244Z,8.77
2023-03-05T04:51:19.625Z,8.75
2023-03-05T04:51:52.044Z,8.98
2023-03-05T04:52:24.502Z,7.88
2023-03-05T04:52:56.889Z,8.50
2023-03-05T04:53:29.215Z,7.40
2023-03-05T04:54:01.551Z,7.88
2023-03-05T04:54:33.857Z,8.40
2023-03-05T04:55:06.355Z,7.43
2023-03-05T04:55:38.696Z,8.25
2023-03-05T04:56:11.012Z,7.68
2023-03-05T04:56:43.780Z,14.52
2023-03-05T04:57:16.482Z,14.85
2023-03-05T04:57:48.844Z,10.05
2023-03-05T04:58:21.157Z,11.53
2023-03-05T04:58:53.622Z,11.25
2023-03-05T04:59:25.908Z,10.20
2023-03-05T04:59:58.273Z,9.15
2023-03-05T05:00:30.545Z,9.07
2023-03-05T05:01:04.680Z,8.50
2023-03-05T05:01:37.777Z,8.73
2023-03-05T05:02:10.078Z,8.70
2023-03-05T05:02:43.555Z,8.55
2023-03-05T05:03:15.937Z,7.65
2023-03-05T05:03:48.349Z,8.13
2023-03-05T05:04:20.690Z,8.65
2023-03-05T05:04:53.832Z,7.78
2023-03-05T05:05:28.618Z,8.50
2023-03-05T05:06:01.370Z,8.57
2023-03-05T05:06:33.858Z,8.18
2023-03-05T05:07:07.816Z,7.47
2023-03-05T05:07:40.106Z,7.85
2023-03-05T05:08:12.404Z,8.43
2023-03-05T05:08:44.717Z,7.78
2023-03-05T05:09:17.071Z,7.93
2023-03-05T05:09:49.423Z,7.00
2023-03-05T05:10:21.986Z,11.82
2023-03-05T05:11:01.497Z,10.07
2023-03-05T05:11:33.811Z,10.07
2023-03-05T05:12:06.237Z,8.80
2023-03-05T05:12:38.632Z,7.55
2023-03-05T05:13:10.956Z,8.35
2023-03-05T05:13:43.253Z,9.00
2023-03-05T05:14:15.597Z,7.90
2023-03-05T05:14:47.861Z,7.37
2023-03-05T05:15:20.603Z,7.78
2023-03-05T05:15:53.206Z,7.25
2023-03-05T05:16:25.546Z,7.32
2023-03-05T05:16:57.858Z,8.02
2023-03-05T05:17:33.080Z,6.53
2023-03-05T05:18:05.562Z,7.90
2023-03-05T05:18:38.075Z,7.82
2023-03-05T05:19:10.650Z,8.02
2023-03-05T05:19:43.088Z,7.35
2023-03-05T05:20:16.522Z,8.20
2023-03-05T05:20:49.290Z,8.13
2023-03-05T05:21:21.669Z,7.68
2023-03-05T05:21:53.952Z,8.10
2023-03-05T05:22:28.002Z,8.30
2023-03-05T05:23:00.345Z,8.00
2023-03-05T05:23:32.671Z,10.45
2023-03-05T05:24:05.240Z,8.93
2023-03-05T05:24:37.813Z,8.95
2023-03-05T05:25:10.720Z,8.48
2023-03-05T05:25:43.458Z,8.13
2023-03-05T05:26:15.837Z,8.25
2023-03-05T05:26:48.123Z,12.32
2023-03-05T05:27:20.688Z,13.15
2023-03-05T05:27:52.972Z,10.85
2023-03-05T05:28:25.255Z,8.32
2023-03-05T05:28:57.575Z,9.18
2023-03-05T05:29:30.069Z,8.60
2023-03-05T05:30:02.672Z,10.32
2023-03-05T05:30:34.982Z,7.60
2023-03-05T05:31:08.075Z,7.73
2023-03-05T05:31:40.498Z,6.55
2023-03-05T05:32:12.844Z,7.40
2023-03-05T05:32:45.182Z,7.03
2023-03-05T05:33:17.685Z,8.27
2023-03-05T05:33:50.116Z,9.00
2023-03-05T05:34:22.398Z,9.20
2023-03-05T05:34:55.603Z,9.10
2023-03-05T05:35:28.177Z,8.57
2023-03-05T05:36:02.348Z,8.95
2023-03-05T05:36:34.667Z,8.37
2023-03-05T05:37:07.031Z,8.25
2023-03-05T05:37:39.341Z,9.25
2023-03-05T05:38:11.691Z,8.20
2023-03-05T05:38:43.976Z,8.18
2023-03-05T05:39:16.260Z,7.93
2023-03-05T05:39:50.482Z,8.23
2023-03-05T05:40:23.360Z,7.50
2023-03-05T05:40:55.626Z,7.05
2023-03-05T05:41:27.926Z,7.53
2023-03-05T05:42:00.197Z,7.60
2023-03-05T05:42:32.477Z,7.63
2023-03-05T05:43:05.181Z,7.63
2023-03-05T05:43:37.802Z,7.78
2023-03-05T05:44:10.081Z,7.20
2023-03-05T05:44:42.362Z,6.70
2023-03-05T05:45:14.765Z,6.95
2023-03-05T05:45:47.426Z,6.35
2023-03-05T05:46:20.661Z,6.60
2023-03-05T05:46:53.086Z,6.43
2023-03-05T05:47:25.379Z,6.87
2023-03-05T05:47:57.833Z,6.97
2023-03-05T05:48:30.880Z,6.55
2023-03-05T05:49:03.263Z,7.18
2023-03-05T05:49:35.588Z,6.65
2023-03-05T05:50:08.190Z,6.97
2023-03-05T05:50:41.377Z,7.55
2023-03-05T05:51:15.464Z,7.20
2023-03-05T05:51:47.769Z,6.65
2023-03-05T05:52:22.016Z,6.50
2023-03-05T05:52:54.303Z,6.43
2023-03-05T05:53:26.663Z,6.65
2023-03-05T05:53:58.998Z,7.05
2023-03-05T05:54:31.273Z,7.30
2023-03-05T05:55:03.801Z,7.18
2023-03-05T05:55:36.084Z,6.28
2023-03-05T05:56:09.863Z,6.65
2023-03-05T05:56:42.401Z,6.22
2023-03-05T05:57:15.062Z,7.10
2023-03-05T05:57:47.446Z,6.90
2023-03-05T05:58:19.826Z,6.50
2023-03-05T05:58:52.566Z,6.75
2023-03-05T05:59:25.028Z,6.53
2023-03-05T05:59:57.508Z,6.47
2023-03-05T06:00:29.940Z,6.57
2023-03-05T06:01:02.502Z,6.18
2023-03-05T06:01:35.323Z,6.25
2023-03-05T06:02:08.321Z,5.80
2023-03-05T06:02:41.640Z,6.40
2023-03-05T06:03:14.100Z,5.97
2023-03-05T06:03:46.790Z,6.20
2023-03-05T06:04:19.279Z,6.03
2023-03-05T06:04:51.621Z,6.32
2023-03-05T06:05:24.055Z,5.90
2023-03-05T06:05:56.534Z,6.28
2023-03-05T06:06:29.046Z,5.60
2023-03-05T06:07:01.425Z,5.60
2023-03-05T06:07:34.898Z,5.80
2023-03-05T06:08:07.555Z,6.40
2023-03-05T06:08:40.396Z,5.35
2023-03-05T06:09:12.702Z,5.53
2023-03-05T06:09:44.984Z,5.70
2023-03-05T06:10:17.426Z,5.97
2023-03-05T06:10:55.724Z,6.40
2023-03-05T06:11:28.138Z,6.38
2023-03-05T06:12:00.469Z,6.47
2023-03-05T06:12:32.758Z,6.35
2023-03-05T06:13:05.091Z,5.93
2023-03-05T06:13:37.504Z,5.85
2023-03-05T06:14:10.969Z,5.80
2023-03-05T06:14:43.477Z,5.70
2023-03-05T06:15:15.863Z,5.75
2023-03-05T06:15:55.841Z,6.03
2023-03-05T06:16:28.162Z,6.50
2023-03-05T06:17:00.674Z,6.38
2023-03-05T06:17:32.989Z,5.40
2023-03-05T06:18:05.481Z,5.68
2023-03-05T06:18:37.825Z,5.38
2023-03-05T06:19:13.654Z,5.95
2023-03-05T06:19:46.063Z,5.20
2023-03-05T06:20:19.129Z,5.90
2023-03-05T06:20:58.781Z,5.40
2023-03-05T06:21:31.096Z,5.72
2023-03-05T06:22:03.386Z,5.70
2023-03-05T06:22:38.977Z,5.18
2023-03-05T06:23:11.324Z,5.38
2023-03-05T06:23:44.167Z,5.55
2023-03-05T06:24:16.543Z,5.50
2023-03-05T06:24:49.039Z,5.18
2023-03-05T06:25:21.354Z,6.05
2023-03-05T06:25:53.909Z,5.50
2023-03-05T06:26:26.363Z,5.30
2023-03-05T06:26:58.634Z,5.85
2023-03-05T06:27:30.886Z,5.97
2023-03-05T06:28:03.106Z,5.88
2023-03-05T06:28:35.630Z,5.63
2023-03-05T06:29:07.886Z,5.50
2023-03-05T06:29:40.158Z,5.70
2023-03-05T06:30:13.001Z,6.05
2023-03-05T06:30:45.367Z,6.07
2023-03-05T06:31:19.108Z,5.50
2023-03-05T06:31:51.471Z,5.70
2023-03-05T06:32:24.053Z,5.85
2023-03-05T06:32:56.365Z,6.60
2023-03-05T06:33:28.937Z,5.80
2023-03-05T06:34:04.220Z,6.53
2023-03-05T06:34:36.553Z,5.90
2023-03-05T06:35:09.323Z,6.20
2023-03-05T06:35:41.662Z,5.93
2023-03-05T06:36:15.389Z,5.80
2023-03-05T06:36:47.778Z,5.73
2023-03-05T06:37:20.295Z,5.90
2023-03-05T06:37:52.637Z,6.13
2023-03-05T06:38:25.477Z,5.57
2023-03-05T06:38:58.359Z,5.78
2023-03-05T06:39:31.762Z,6.10
2023-03-05T06:40:04.960Z,5.97
2023-03-05T06:40:39.369Z,5.32
2023-03-05T06:41:13.260Z,6.00
2023-03-05T06:41:45.626Z,5.88
2023-03-05T06:42:19.896Z,5.70
2023-03-05T06:42:52.177Z,5.30
2023-03-05T06:43:24.498Z,5.55
2023-03-05T06:43:56.957Z,5.45
2023-03-05T06:44:29.416Z,5.88
2023-03-05T06:45:01.819Z,5.53
2023-03-05T06:45:34.283Z,5.45
2023-03-05T06:46:08.130Z,5.75
2023-03-05T06:46:40.510Z,5.53
2023-03-05T06:47:12.990Z,5.50
2023-03-05T06:47:45.423Z,5.40
2023-03-05T06:48:17.708Z,5.45
2023-03-05T06:48:50.988Z,5.18
2023-03-05T06:49:23.495Z,5.90
2023-03-05T06:49:55.849Z,5.38
2023-03-05T06:50:28.725Z,5.70
2023-03-05T06:51:01.099Z,5.38
2023-03-05T06:51:34.848Z,6.35
2023-03-05T06:52:07.751Z,5.60
2023-03-05T06:52:41.202Z,5.57
2023-03-05T06:53:13.586Z,5.63
2023-03-05T06:53:49.000Z,5.82
2023-03-05T06:54:21.678Z,6.10
2023-03-05T06:54:56.047Z,7.55
2023-03-05T06:55:28.340Z,7.70
2023-03-05T06:56:01.631Z,8.77
2023-03-05T06:56:35.706Z,11.07
2023-03-05T06:57:08.065Z,11.00
2023-03-05T06:57:40.394Z,15.52
2023-03-05T06:58:12.665Z,22.77
2023-03-05T06:58:46.222Z,23.73
2023-03-05T06:59:18.593Z,17.23
2023-03-05T06:59:50.892Z,8.40
2023-03-05T07:00:24.568Z,9.70
2023-03-05T07:00:56.899Z,10.65
2023-03-05T07:01:29.293Z,13.35
2023-03-05T07:02:01.646Z,12.75
2023-03-05T07:02:34.052Z,11.40
2023-03-05T07:03:06.370Z,11.10
2023-03-05T07:03:39.124Z,6.60
2023-03-05T07:04:12.320Z,6.57
2023-03-05T07:04:44.850Z,7.28
2023-03-05T07:05:17.275Z,6.15
2023-03-05T07:05:49.597Z,5.18
2023-03-05T07:06:22.613Z,5.25
2023-03-05T07:06:56.361Z,4.82
2023-03-05T07:07:28.671Z,5.72
2023-03-05T07:08:01.052Z,5.20
2023-03-05T07:08:33.415Z,4.95
2023-03-05T07:09:06.884Z,4.13
2023-03-05T07:09:43.131Z,5.10
2023-03-05T07:10:15.548Z,4.80
2023-03-05T07:10:47.943Z,4.57
2023-03-05T07:11:20.847Z,4.70
2023-03-05T07:11:53.126Z,4.50
2023-03-05T07:12:25.405Z,4.55
2023-03-05T07:12:57.793Z,4.35
2023-03-05T07:13:30.249Z,4.18
2023-03-05T07:14:03.313Z,4.50
2023-03-05T07:14:35.671Z,3.92
2023-03-05T07:15:08.313Z,4.13
2023-03-05T07:15:41.069Z,4.90
2023-03-05T07:16:20.459Z,6.55
2023-03-05T07:16:52.784Z,11.68
2023-03-05T07:17:25.086Z,14.07
2023-03-05T07:17:57.546Z,15.68
2023-03-05T07:18:29.838Z,11.88
2023-03-05T07:19:03.275Z,11.88
2023-03-05T07:19:35.667Z,12.32